Terminal Aerodrome Forecast
Issued by NWS

Home | Current Version | Previous Version | Graphics & Text | Print | Product List | Glossary On
Versions: 1 2 3 4 5 6 7 8 9 10 11 12 13 14 15 16 17 18
000
FTUS43 KICT 261956 AAA
TAFRSL
TAF AMD
KRSL 261956Z 2620/2718 36019G27KT P6SM BKN150
     FM270200 34011KT P6SM FEW250
     FM270400 34007KT P6SM SKC=

USA.gov is the U.S. government's official web portal to all federal, state and local government web resources and services.